sensor_id;sensor_type;location;lat;lon;timestamp;pressure;altitude;pressure_sealevel;temperature;humidity
47710;BME280;33473;51.640;5.892;2023-10-08T00:04:19;102100;;;24.2;44.0
47710;BME280;33473;51.640;5.892;2023-10-08T00:17:41;102100;;;24.1;44.0
47710;BME280;33473;51.640;5.892;2023-10-08T00:31:02;102100;;;24.0;44.0
47710;BME280;33473;51.640;5.892;2023-10-08T00:44:21;102100;;;23.9;44.0
47710;BME280;33473;51.640;5.892;2023-10-08T00:57:43;102100;;;23.6;45.0
47710;BME280;33473;51.640;5.892;2023-10-08T01:11:04;102100;;;23.5;45.0
47710;BME280;33473;51.640;5.892;2023-10-08T01:24:24;102100;;;23.4;46.0
47710;BME280;33473;51.640;5.892;2023-10-08T01:37:45;102100;;;23.2;46.0
47710;BME280;33473;51.640;5.892;2023-10-08T01:51:06;102100;;;23.1;46.0
47710;BME280;33473;51.640;5.892;2023-10-08T02:04:27;102100;;;23.1;46.0
47710;BME280;33473;51.640;5.892;2023-10-08T02:17:49;102100;;;23.0;47.0
47710;BME280;33473;51.640;5.892;2023-10-08T02:31:08;102100;;;22.9;47.0
47710;BME280;33473;51.640;5.892;2023-10-08T02:44:30;102100;;;22.8;47.0
47710;BME280;33473;51.640;5.892;2023-10-08T02:57:51;102200;;;22.7;47.0
47710;BME280;33473;51.640;5.892;2023-10-08T03:11:12;102200;;;22.6;48.0
47710;BME280;33473;51.640;5.892;2023-10-08T03:24:32;102100;;;22.5;48.0
47710;BME280;33473;51.640;5.892;2023-10-08T03:37:53;102200;;;22.5;48.0
47710;BME280;33473;51.640;5.892;2023-10-08T03:51:13;102200;;;22.4;49.0
47710;BME280;33473;51.640;5.892;2023-10-08T04:04:34;102200;;;22.3;49.0
47710;BME280;33473;51.640;5.892;2023-10-08T04:17:55;102200;;;22.3;49.0
47710;BME280;33473;51.640;5.892;2023-10-08T04:31:15;102200;;;22.3;49.0
47710;BME280;33473;51.640;5.892;2023-10-08T04:44:35;102200;;;22.2;50.0
47710;BME280;33473;51.640;5.892;2023-10-08T04:57:54;102300;;;22.2;49.0
47710;BME280;33473;51.640;5.892;2023-10-08T05:11:14;102200;;;22.2;49.0
47710;BME280;33473;51.640;5.892;2023-10-08T05:24:34;102200;;;22.1;50.0
47710;BME280;33473;51.640;5.892;2023-10-08T05:37:53;102200;;;22.0;50.0
47710;BME280;33473;51.640;5.892;2023-10-08T05:51:15;102300;;;22.0;50.0
47710;BME280;33473;51.640;5.892;2023-10-08T06:04:34;102200;;;21.8;51.0
47710;BME280;33473;51.640;5.892;2023-10-08T06:17:56;102200;;;21.9;51.0
47710;BME280;33473;51.640;5.892;2023-10-08T06:31:17;102300;;;21.8;51.0
47710;BME280;33473;51.640;5.892;2023-10-08T06:44:38;102300;;;21.9;52.0
47710;BME280;33473;51.640;5.892;2023-10-08T06:58:00;102300;;;21.9;51.0
47710;BME280;33473;51.640;5.892;2023-10-08T07:11:21;102400;;;22.1;51.0
47710;BME280;33473;51.640;5.892;2023-10-08T07:24:41;102400;;;22.3;52.0
47710;BME280;33473;51.640;5.892;2023-10-08T07:38:02;102400;;;22.3;53.0
47710;BME280;33473;51.640;5.892;2023-10-08T07:51:23;102400;;;22.4;53.0
47710;BME280;33473;51.640;5.892;2023-10-08T08:04:44;102400;;;22.5;53.0
47710;BME280;33473;51.640;5.892;2023-10-08T08:18:04;102400;;;22.6;52.0
47710;BME280;33473;51.640;5.892;2023-10-08T08:31:24;102400;;;22.6;52.0
47710;BME280;33473;51.640;5.892;2023-10-08T08:44:44;102400;;;22.6;52.0
47710;BME280;33473;51.640;5.892;2023-10-08T08:58:05;102400;;;22.6;52.0
47710;BME280;33473;51.640;5.892;2023-10-08T09:11:26;102400;;;22.6;51.0
47710;BME280;33473;51.640;5.892;2023-10-08T09:24:47;102500;;;22.6;50.0
47710;BME280;33473;51.640;5.892;2023-10-08T09:38:07;102500;;;22.5;50.0
47710;BME280;33473;51.640;5.892;2023-10-08T09:51:27;102400;;;22.6;50.0
47710;BME280;33473;51.640;5.892;2023-10-08T10:04:47;102400;;;22.8;50.0
47710;BME280;33473;51.640;5.892;2023-10-08T10:18:08;102400;;;23.1;49.0
47710;BME280;33473;51.640;5.892;2023-10-08T10:31:29;102500;;;23.4;48.0
47710;BME280;33473;51.640;5.892;2023-10-08T10:44:50;102500;;;23.6;47.0
47710;BME280;33473;51.640;5.892;2023-10-08T10:58:10;102500;;;23.8;47.0
47710;BME280;33473;51.640;5.892;2023-10-08T11:11:30;102500;;;23.8;47.0
47710;BME280;33473;51.640;5.892;2023-10-08T11:24:51;102400;;;24.1;47.0
47710;BME280;33473;51.640;5.892;2023-10-08T11:38:11;102400;;;24.4;46.0
47710;BME280;33473;51.640;5.892;2023-10-08T11:51:31;102400;;;24.3;47.0
47710;BME280;33473;51.640;5.892;2023-10-08T12:04:50;102400;;;24.2;47.0
47710;BME280;33473;51.640;5.892;2023-10-08T12:18:11;102400;;;24.0;48.0
47710;BME280;33473;51.640;5.892;2023-10-08T12:31:33;102400;;;24.2;47.0
47710;BME280;33473;51.640;5.892;2023-10-08T12:44:54;102400;;;24.4;48.0
47710;BME280;33473;51.640;5.892;2023-10-08T12:58:14;102400;;;24.5;47.0
47710;BME280;33473;51.640;5.892;2023-10-08T13:11:33;102400;;;24.5;47.0
47710;BME280;33473;51.640;5.892;2023-10-08T13:24:53;102300;;;24.6;47.0
47710;BME280;33473;51.640;5.892;2023-10-08T13:38:13;102300;;;24.8;47.0
47710;BME280;33473;51.640;5.892;2023-10-08T13:51:34;102300;;;24.8;47.0
47710;BME280;33473;51.640;5.892;2023-10-08T14:04:55;102300;;;24.8;48.0
47710;BME280;33473;51.640;5.892;2023-10-08T14:18:17;102300;;;24.8;47.0
47710;BME280;33473;51.640;5.892;2023-10-08T14:31:38;102300;;;25.0;48.0
47710;BME280;33473;51.640;5.892;2023-10-08T15:11:40;102300;;;25.0;47.0
47710;BME280;33473;51.640;5.892;2023-10-08T15:25:01;102300;;;25.0;47.0
47710;BME280;33473;51.640;5.892;2023-10-08T15:38:23;102200;;;24.9;47.0
47710;BME280;33473;51.640;5.892;2023-10-08T15:51:42;102200;;;24.7;47.0
47710;BME280;33473;51.640;5.892;2023-10-08T16:05:04;102200;;;24.5;47.0
47710;BME280;33473;51.640;5.892;2023-10-08T16:18:25;102200;;;24.2;48.0
47710;BME280;33473;51.640;5.892;2023-10-08T16:31:46;102200;;;23.9;48.0
47710;BME280;33473;51.640;5.892;2023-10-08T16:45:07;102200;;;23.5;49.0
47710;BME280;33473;51.640;5.892;2023-10-08T16:58:27;102200;;;23.1;49.0
47710;BME280;33473;51.640;5.892;2023-10-08T17:11:48;102200;;;22.7;50.0
47710;BME280;33473;51.640;5.892;2023-10-08T17:25:10;102200;;;22.4;50.0
47710;BME280;33473;51.640;5.892;2023-10-08T17:38:31;102200;;;22.2;51.0
47710;BME280;33473;51.640;5.892;2023-10-08T17:51:52;102200;;;22.0;51.0
47710;BME280;33473;51.640;5.892;2023-10-08T18:05:12;102200;;;21.8;51.0
47710;BME280;33473;51.640;5.892;2023-10-08T18:18:33;102200;;;21.6;52.0
47710;BME280;33473;51.640;5.892;2023-10-08T18:31:53;102100;;;21.4;52.0
47710;BME280;33473;51.640;5.892;2023-10-08T18:45:14;102100;;;21.2;52.0
47710;BME280;33473;51.640;5.892;2023-10-08T18:58:34;102100;;;21.0;52.0
47710;BME280;33473;51.640;5.892;2023-10-08T19:11:55;102100;;;20.8;52.0
47710;BME280;33473;51.640;5.892;2023-10-08T19:25:15;102100;;;20.7;52.0
47710;BME280;33473;51.640;5.892;2023-10-08T19:38:35;102100;;;20.5;52.0
47710;BME280;33473;51.640;5.892;2023-10-08T19:51:54;102100;;;20.3;52.0
47710;BME280;33473;51.640;5.892;2023-10-08T20:05:14;102000;;;20.2;53.0
47710;BME280;33473;51.640;5.892;2023-10-08T20:18:35;102000;;;20.1;53.0
47710;BME280;33473;51.640;5.892;2023-10-08T20:31:57;102000;;;20.1;53.0
47710;BME280;33473;51.640;5.892;2023-10-08T20:45:18;102000;;;20.0;53.0
47710;BME280;33473;51.640;5.892;2023-10-08T20:58:39;102000;;;20.0;54.0
47710;BME280;33473;51.640;5.892;2023-10-08T21:11:59;102000;;;19.9;53.0
47710;BME280;33473;51.640;5.892;2023-10-08T21:25:19;102000;;;19.7;53.0
47710;BME280;33473;51.640;5.892;2023-10-08T21:38:40;102000;;;19.5;53.0
47710;BME280;33473;51.640;5.892;2023-10-08T21:52:01;102000;;;19.4;53.0
47710;BME280;33473;51.640;5.892;2023-10-08T22:05:22;102000;;;19.4;54.0
47710;BME280;33473;51.640;5.892;2023-10-08T22:18:44;102000;;;19.4;54.0
47710;BME280;33473;51.640;5.892;2023-10-08T22:32:05;101900;;;19.4;53.0
47710;BME280;33473;51.640;5.892;2023-10-08T22:45:26;101900;;;19.3;54.0
47710;BME280;33473;51.640;5.892;2023-10-08T22:58:47;101900;;;19.6;55.0
47710;BME280;33473;51.640;5.892;2023-10-08T23:12:07;101900;;;20.0;56.0
47710;BME280;33473;51.640;5.892;2023-10-08T23:25:28;101900;;;20.2;56.0
47710;BME280;33473;51.640;5.892;2023-10-08T23:38:50;101900;;;20.4;56.0
47710;BME280;33473;51.640;5.892;2023-10-08T23:52:11;101900;;;20.6;56.0
